sensor_id;sensor_type;location;lat;lon;timestamp;temperature;humidity
10384;DHT22;5238;43.508;4.980;2023-07-16T00:00:14;27.70;91.30
10384;DHT22;5238;43.508;4.980;2023-07-16T00:02:44;27.70;91.30
10384;DHT22;5238;43.508;4.980;2023-07-16T00:05:11;27.70;91.30
10384;DHT22;5238;43.508;4.980;2023-07-16T00:07:38;27.70;91.30
10384;DHT22;5238;43.508;4.980;2023-07-16T00:10:06;27.70;91.30
10384;DHT22;5238;43.508;4.980;2023-07-16T00:12:33;27.70;91.30
10384;DHT22;5238;43.508;4.980;2023-07-16T00:15:00;27.60;91.30
10384;DHT22;5238;43.508;4.980;2023-07-16T00:17:27;27.60;91.30
10384;DHT22;5238;43.508;4.980;2023-07-16T00:19:54;27.60;91.30
10384;DHT22;5238;43.508;4.980;2023-07-16T00:22:21;27.60;91.30
10384;DHT22;5238;43.508;4.980;2023-07-16T00:24:48;27.60;91.30
10384;DHT22;5238;43.508;4.980;2023-07-16T00:27:16;27.60;91.30
10384;DHT22;5238;43.508;4.980;2023-07-16T00:29:43;27.60;91.30
10384;DHT22;5238;43.508;4.980;2023-07-16T00:32:11;27.60;91.30
10384;DHT22;5238;43.508;4.980;2023-07-16T00:34:38;27.60;91.30
10384;DHT22;5238;43.508;4.980;2023-07-16T00:37:05;27.60;91.30
10384;DHT22;5238;43.508;4.980;2023-07-16T00:39:32;27.60;91.30
10384;DHT22;5238;43.508;4.980;2023-07-16T00:41:59;27.50;91.30
10384;DHT22;5238;43.508;4.980;2023-07-16T00:44:28;27.50;91.30
10384;DHT22;5238;43.508;4.980;2023-07-16T00:46:55;27.50;91.30
10384;DHT22;5238;43.508;4.980;2023-07-16T00:49:22;27.50;91.30
10384;DHT22;5238;43.508;4.980;2023-07-16T00:51:50;27.50;91.30
10384;DHT22;5238;43.508;4.980;2023-07-16T00:54:18;27.50;91.30
10384;DHT22;5238;43.508;4.980;2023-07-16T00:56:45;27.40;91.30
10384;DHT22;5238;43.508;4.980;2023-07-16T00:59:12;27.50;91.30
10384;DHT22;5238;43.508;4.980;2023-07-16T01:01:41;27.40;91.30
10384;DHT22;5238;43.508;4.980;2023-07-16T01:04:08;27.40;91.30
10384;DHT22;5238;43.508;4.980;2023-07-16T01:06:37;27.40;91.30
10384;DHT22;5238;43.508;4.980;2023-07-16T01:09:08;27.40;91.30
10384;DHT22;5238;43.508;4.980;2023-07-16T01:11:38;27.40;91.30
10384;DHT22;5238;43.508;4.980;2023-07-16T01:14:07;27.40;91.30
10384;DHT22;5238;43.508;4.980;2023-07-16T01:16:34;27.40;91.30
10384;DHT22;5238;43.508;4.980;2023-07-16T01:19:03;27.40;91.30
10384;DHT22;5238;43.508;4.980;2023-07-16T01:21:34;27.40;91.30
10384;DHT22;5238;43.508;4.980;2023-07-16T01:24:14;27.30;91.30
10384;DHT22;5238;43.508;4.980;2023-07-16T01:26:56;27.40;91.30
10384;DHT22;5238;43.508;4.980;2023-07-16T01:29:30;27.40;91.30
10384;DHT22;5238;43.508;4.980;2023-07-16T01:32:00;27.40;91.30
10384;DHT22;5238;43.508;4.980;2023-07-16T01:34:28;27.40;91.30
10384;DHT22;5238;43.508;4.980;2023-07-16T01:36:56;27.40;91.30
10384;DHT22;5238;43.508;4.980;2023-07-16T01:39:23;27.40;91.30
10384;DHT22;5238;43.508;4.980;2023-07-16T01:41:50;27.40;91.30
10384;DHT22;5238;43.508;4.980;2023-07-16T01:44:17;27.40;91.30
10384;DHT22;5238;43.508;4.980;2023-07-16T01:46:49;27.40;91.30
10384;DHT22;5238;43.508;4.980;2023-07-16T01:49:20;27.50;91.30
10384;DHT22;5238;43.508;4.980;2023-07-16T01:51:47;27.50;91.30
10384;DHT22;5238;43.508;4.980;2023-07-16T01:54:14;27.40;91.30
10384;DHT22;5238;43.508;4.980;2023-07-16T01:56:41;27.40;91.30
10384;DHT22;5238;43.508;4.980;2023-07-16T01:59:08;27.40;91.30
10384;DHT22;5238;43.508;4.980;2023-07-16T02:01:35;27.40;91.30
10384;DHT22;5238;43.508;4.980;2023-07-16T02:04:03;27.40;91.30
10384;DHT22;5238;43.508;4.980;2023-07-16T02:06:30;27.40;91.30
10384;DHT22;5238;43.508;4.980;2023-07-16T02:08:57;27.30;91.30
10384;DHT22;5238;43.508;4.980;2023-07-16T02:11:24;27.30;91.30
10384;DHT22;5238;43.508;4.980;2023-07-16T02:13:51;27.30;91.30
10384;DHT22;5238;43.508;4.980;2023-07-16T02:16:18;27.30;91.30
10384;DHT22;5238;43.508;4.980;2023-07-16T02:18:45;27.30;91.30
10384;DHT22;5238;43.508;4.980;2023-07-16T02:21:14;27.30;91.30
10384;DHT22;5238;43.508;4.980;2023-07-16T02:23:41;27.20;91.30
10384;DHT22;5238;43.508;4.980;2023-07-16T02:26:08;27.20;91.30
10384;DHT22;5238;43.508;4.980;2023-07-16T02:28:35;27.20;91.30
10384;DHT22;5238;43.508;4.980;2023-07-16T02:31:02;27.20;91.30
10384;DHT22;5238;43.508;4.980;2023-07-16T02:33:29;27.20;91.30
10384;DHT22;5238;43.508;4.980;2023-07-16T02:35:56;27.10;91.30
10384;DHT22;5238;43.508;4.980;2023-07-16T02:38:25;27.10;91.30
10384;DHT22;5238;43.508;4.980;2023-07-16T02:40:52;27.10;91.30
10384;DHT22;5238;43.508;4.980;2023-07-16T02:43:19;27.10;91.30
10384;DHT22;5238;43.508;4.980;2023-07-16T02:45:46;27.00;91.30
10384;DHT22;5238;43.508;4.980;2023-07-16T02:48:13;27.00;91.30
10384;DHT22;5238;43.508;4.980;2023-07-16T02:50:40;26.90;91.30
10384;DHT22;5238;43.508;4.980;2023-07-16T02:53:08;26.80;91.30
10384;DHT22;5238;43.508;4.980;2023-07-16T02:55:36;26.80;91.30
10384;DHT22;5238;43.508;4.980;2023-07-16T02:58:03;26.70;91.30
10384;DHT22;5238;43.508;4.980;2023-07-16T03:00:31;26.70;91.30
10384;DHT22;5238;43.508;4.980;2023-07-16T03:02:58;26.70;91.30
10384;DHT22;5238;43.508;4.980;2023-07-16T03:05:25;26.60;91.30
10384;DHT22;5238;43.508;4.980;2023-07-16T03:07:52;26.60;91.30
10384;DHT22;5238;43.508;4.980;2023-07-16T03:10:22;26.60;91.30
10384;DHT22;5238;43.508;4.980;2023-07-16T03:12:53;26.50;91.30
10384;DHT22;5238;43.508;4.980;2023-07-16T03:15:20;26.40;91.30
10384;DHT22;5238;43.508;4.980;2023-07-16T03:17:47;26.40;91.30
10384;DHT22;5238;43.508;4.980;2023-07-16T03:20:14;26.40;91.30
10384;DHT22;5238;43.508;4.980;2023-07-16T03:22:41;26.30;91.30
10384;DHT22;5238;43.508;4.980;2023-07-16T03:25:09;26.30;91.30
10384;DHT22;5238;43.508;4.980;2023-07-16T03:27:36;26.30;91.30
10384;DHT22;5238;43.508;4.980;2023-07-16T03:30:05;26.30;91.30
10384;DHT22;5238;43.508;4.980;2023-07-16T03:32:32;26.20;91.30
10384;DHT22;5238;43.508;4.980;2023-07-16T03:34:59;26.20;91.30
10384;DHT22;5238;43.508;4.980;2023-07-16T03:37:26;26.20;91.30
10384;DHT22;5238;43.508;4.980;2023-07-16T03:39:53;26.20;91.30
10384;DHT22;5238;43.508;4.980;2023-07-16T03:42:20;26.20;91.30
10384;DHT22;5238;43.508;4.980;2023-07-16T03:44:48;26.20;91.30
10384;DHT22;5238;43.508;4.980;2023-07-16T03:47:16;26.20;91.30
10384;DHT22;5238;43.508;4.980;2023-07-16T03:49:43;26.20;91.30
10384;DHT22;5238;43.508;4.980;2023-07-16T03:52:10;26.20;91.30
10384;DHT22;5238;43.508;4.980;2023-07-16T03:54:37;26.20;91.30
10384;DHT22;5238;43.508;4.980;2023-07-16T03:57:08;26.20;91.30
10384;DHT22;5238;43.508;4.980;2023-07-16T03:59:40;26.20;91.30
10384;DHT22;5238;43.508;4.980;2023-07-16T04:02:09;26.20;91.30
10384;DHT22;5238;43.508;4.980;2023-07-16T04:04:39;26.20;91.30
10384;DHT22;5238;43.508;4.980;2023-07-16T04:07:11;26.10;91.30
10384;DHT22;5238;43.508;4.980;2023-07-16T04:09:38;26.10;91.30
10384;DHT22;5238;43.508;4.980;2023-07-16T04:12:06;26.10;91.30
10384;DHT22;5238;43.508;4.980;2023-07-16T04:14:33;26.10;91.30
10384;DHT22;5238;43.508;4.980;2023-07-16T04:17:00;26.10;91.30
10384;DHT22;5238;43.508;4.980;2023-07-16T04:19:28;26.10;91.30
10384;DHT22;5238;43.508;4.980;2023-07-16T04:21:56;26.10;91.30
10384;DHT22;5238;43.508;4.980;2023-07-16T04:24:24;26.10;91.30
10384;DHT22;5238;43.508;4.980;2023-07-16T04:26:52;26.10;91.30
10384;DHT22;5238;43.508;4.980;2023-07-16T04:29:19;26.10;91.30
10384;DHT22;5238;43.508;4.980;2023-07-16T04:31:46;26.10;91.30
10384;DHT22;5238;43.508;4.980;2023-07-16T04:34:13;26.10;91.30
10384;DHT22;5238;43.508;4.980;2023-07-16T04:36:42;26.00;91.30
10384;DHT22;5238;43.508;4.980;2023-07-16T04:39:11;26.00;91.30
10384;DHT22;5238;43.508;4.980;2023-07-16T04:41:38;26.00;91.30
10384;DHT22;5238;43.508;4.980;2023-07-16T04:44:05;26.10;91.30
10384;DHT22;5238;43.508;4.980;2023-07-16T04:46:32;26.10;91.30
10384;DHT22;5238;43.508;4.980;2023-07-16T04:48:59;26.20;91.30
10384;DHT22;5238;43.508;4.980;2023-07-16T04:51:26;26.20;91.30
10384;DHT22;5238;43.508;4.980;2023-07-16T04:53:53;26.20;91.30
10384;DHT22;5238;43.508;4.980;2023-07-16T04:56:22;26.20;91.30
10384;DHT22;5238;43.508;4.980;2023-07-16T04:58:49;26.20;91.30
10384;DHT22;5238;43.508;4.980;2023-07-16T05:01:16;26.20;91.30
10384;DHT22;5238;43.508;4.980;2023-07-16T05:03:43;26.30;91.30
10384;DHT22;5238;43.508;4.980;2023-07-16T05:06:10;26.30;91.30
10384;DHT22;5238;43.508;4.980;2023-07-16T05:08:37;26.30;91.30
10384;DHT22;5238;43.508;4.980;2023-07-16T05:11:04;26.40;91.30
10384;DHT22;5238;43.508;4.980;2023-07-16T05:13:33;26.40;91.30
10384;DHT22;5238;43.508;4.980;2023-07-16T05:16:00;26.40;91.30
10384;DHT22;5238;43.508;4.980;2023-07-16T05:18:27;26.50;91.30
10384;DHT22;5238;43.508;4.980;2023-07-16T05:20:54;26.50;91.30
10384;DHT22;5238;43.508;4.980;2023-07-16T05:23:21;26.60;91.30
10384;DHT22;5238;43.508;4.980;2023-07-16T05:25:48;26.60;91.30
10384;DHT22;5238;43.508;4.980;2023-07-16T05:28:15;26.60;91.30
10384;DHT22;5238;43.508;4.980;2023-07-16T05:30:44;26.60;91.30
10384;DHT22;5238;43.508;4.980;2023-07-16T05:33:11;26.60;91.30
10384;DHT22;5238;43.508;4.980;2023-07-16T05:35:39;26.70;91.30
10384;DHT22;5238;43.508;4.980;2023-07-16T05:38:06;26.70;91.30
10384;DHT22;5238;43.508;4.980;2023-07-16T05:40:34;26.70;91.30
10384;DHT22;5238;43.508;4.980;2023-07-16T05:43:01;26.70;91.30
10384;DHT22;5238;43.508;4.980;2023-07-16T05:45:28;26.70;91.30
10384;DHT22;5238;43.508;4.980;2023-07-16T05:47:57;26.70;91.30
10384;DHT22;5238;43.508;4.980;2023-07-16T05:50:26;26.80;91.30
10384;DHT22;5238;43.508;4.980;2023-07-16T05:52:55;26.80;91.30
10384;DHT22;5238;43.508;4.980;2023-07-16T05:55:22;26.90;91.30
10384;DHT22;5238;43.508;4.980;2023-07-16T05:57:50;27.00;91.30
10384;DHT22;5238;43.508;4.980;2023-07-16T06:00:17;27.00;91.30
10384;DHT22;5238;43.508;4.980;2023-07-16T06:02:44;27.00;91.30
10384;DHT22;5238;43.508;4.980;2023-07-16T06:05:12;27.10;91.30
10384;DHT22;5238;43.508;4.980;2023-07-16T06:07:43;27.10;91.30
10384;DHT22;5238;43.508;4.980;2023-07-16T06:10:10;27.20;91.30
10384;DHT22;5238;43.508;4.980;2023-07-16T06:12:37;27.20;91.30
10384;DHT22;5238;43.508;4.980;2023-07-16T06:15:05;27.30;91.30
10384;DHT22;5238;43.508;4.980;2023-07-16T06:17:32;27.30;91.30
10384;DHT22;5238;43.508;4.980;2023-07-16T06:20:02;27.40;91.30
10384;DHT22;5238;43.508;4.980;2023-07-16T06:22:31;27.50;91.30
10384;DHT22;5238;43.508;4.980;2023-07-16T06:24:58;27.60;91.30
10384;DHT22;5238;43.508;4.980;2023-07-16T06:27:30;27.70;91.30
10384;DHT22;5238;43.508;4.980;2023-07-16T06:29:58;27.80;91.30
10384;DHT22;5238;43.508;4.980;2023-07-16T06:32:25;27.90;91.30
10384;DHT22;5238;43.508;4.980;2023-07-16T06:37:57;28.00;91.30
10384;DHT22;5238;43.508;4.980;2023-07-16T06:40:24;28.20;91.30
10384;DHT22;5238;43.508;4.980;2023-07-16T06:42:51;28.30;91.30
10384;DHT22;5238;43.508;4.980;2023-07-16T06:45:18;28.60;91.30
10384;DHT22;5238;43.508;4.980;2023-07-16T06:47:45;28.80;91.30
10384;DHT22;5238;43.508;4.980;2023-07-16T06:50:12;29.00;91.30
10384;DHT22;5238;43.508;4.980;2023-07-16T06:52:39;29.30;91.30
10384;DHT22;5238;43.508;4.980;2023-07-16T06:55:08;29.60;91.30
10384;DHT22;5238;43.508;4.980;2023-07-16T06:57:35;29.90;91.30
10384;DHT22;5238;43.508;4.980;2023-07-16T07:00:03;30.30;91.30
10384;DHT22;5238;43.508;4.980;2023-07-16T07:02:30;30.50;91.30
10384;DHT22;5238;43.508;4.980;2023-07-16T07:04:57;30.60;91.30
10384;DHT22;5238;43.508;4.980;2023-07-16T07:07:25;30.90;91.30
10384;DHT22;5238;43.508;4.980;2023-07-16T07:09:52;31.10;91.30
10384;DHT22;5238;43.508;4.980;2023-07-16T07:12:20;31.40;91.30
10384;DHT22;5238;43.508;4.980;2023-07-16T07:14:47;31.60;91.30
10384;DHT22;5238;43.508;4.980;2023-07-16T07:17:14;31.80;91.30
10384;DHT22;5238;43.508;4.980;2023-07-16T07:19:42;32.00;91.30
10384;DHT22;5238;43.508;4.980;2023-07-16T07:22:09;32.30;91.30
10384;DHT22;5238;43.508;4.980;2023-07-16T07:24:36;32.60;91.30
10384;DHT22;5238;43.508;4.980;2023-07-16T07:27:04;32.80;91.30
10384;DHT22;5238;43.508;4.980;2023-07-16T07:29:32;33.10;91.30
10384;DHT22;5238;43.508;4.980;2023-07-16T07:31:59;33.40;91.30
10384;DHT22;5238;43.508;4.980;2023-07-16T07:34:26;33.70;91.30
10384;DHT22;5238;43.508;4.980;2023-07-16T07:36:53;34.00;91.30
10384;DHT22;5238;43.508;4.980;2023-07-16T07:39:20;34.30;91.30
10384;DHT22;5238;43.508;4.980;2023-07-16T07:41:47;34.60;91.30
10384;DHT22;5238;43.508;4.980;2023-07-16T07:44:14;34.80;91.30
10384;DHT22;5238;43.508;4.980;2023-07-16T07:46:42;35.20;91.30
10384;DHT22;5238;43.508;4.980;2023-07-16T07:49:09;35.50;91.30
10384;DHT22;5238;43.508;4.980;2023-07-16T07:51:36;35.80;91.30
10384;DHT22;5238;43.508;4.980;2023-07-16T07:54:03;36.20;91.30
10384;DHT22;5238;43.508;4.980;2023-07-16T07:56:30;36.50;91.30
10384;DHT22;5238;43.508;4.980;2023-07-16T07:58:57;36.90;91.30
10384;DHT22;5238;43.508;4.980;2023-07-16T08:01:24;37.30;91.30
10384;DHT22;5238;43.508;4.980;2023-07-16T08:03:52;37.40;91.30
10384;DHT22;5238;43.508;4.980;2023-07-16T08:06:19;37.70;91.30
10384;DHT22;5238;43.508;4.980;2023-07-16T08:08:46;37.90;91.30
10384;DHT22;5238;43.508;4.980;2023-07-16T08:11:13;38.10;91.30
10384;DHT22;5238;43.508;4.980;2023-07-16T08:13:40;38.40;91.30
10384;DHT22;5238;43.508;4.980;2023-07-16T08:16:07;38.60;91.30
10384;DHT22;5238;43.508;4.980;2023-07-16T08:18:35;38.70;91.30
10384;DHT22;5238;43.508;4.980;2023-07-16T08:21:03;38.90;91.30
10384;DHT22;5238;43.508;4.980;2023-07-16T08:23:30;39.00;91.30
10384;DHT22;5238;43.508;4.980;2023-07-16T08:25:57;39.30;91.30
10384;DHT22;5238;43.508;4.980;2023-07-16T08:28:24;39.50;91.30
10384;DHT22;5238;43.508;4.980;2023-07-16T08:30:51;39.60;91.30
10384;DHT22;5238;43.508;4.980;2023-07-16T08:33:18;39.80;91.30
10384;DHT22;5238;43.508;4.980;2023-07-16T08:35:45;39.90;91.30
10384;DHT22;5238;43.508;4.980;2023-07-16T08:38:13;40.00;91.30
10384;DHT22;5238;43.508;4.980;2023-07-16T08:40:40;40.20;91.30
10384;DHT22;5238;43.508;4.980;2023-07-16T08:43:08;40.40;91.30
10384;DHT22;5238;43.508;4.980;2023-07-16T08:45:39;40.70;91.30
10384;DHT22;5238;43.508;4.980;2023-07-16T08:48:08;40.80;91.30
10384;DHT22;5238;43.508;4.980;2023-07-16T08:50:35;41.00;91.30
10384;DHT22;5238;43.508;4.980;2023-07-16T08:53:04;41.20;90.20
10384;DHT22;5238;43.508;4.980;2023-07-16T08:55:33;41.40;90.20
10384;DHT22;5238;43.508;4.980;2023-07-16T08:58:03;41.50;89.40
10384;DHT22;5238;43.508;4.980;2023-07-16T09:00:31;41.70;89.60
10384;DHT22;5238;43.508;4.980;2023-07-16T09:02:58;41.90;87.00
10384;DHT22;5238;43.508;4.980;2023-07-16T09:05:25;42.00;86.50
10384;DHT22;5238;43.508;4.980;2023-07-16T09:07:52;42.10;86.90
10384;DHT22;5238;43.508;4.980;2023-07-16T09:10:19;42.20;87.30
10384;DHT22;5238;43.508;4.980;2023-07-16T09:12:47;42.20;87.00
10384;DHT22;5238;43.508;4.980;2023-07-16T09:15:17;42.30;86.90
10384;DHT22;5238;43.508;4.980;2023-07-16T09:17:47;42.40;85.30
10384;DHT22;5238;43.508;4.980;2023-07-16T09:20:15;42.60;85.30
10384;DHT22;5238;43.508;4.980;2023-07-16T09:22:42;42.80;84.10
10384;DHT22;5238;43.508;4.980;2023-07-16T09:25:09;42.90;83.60
10384;DHT22;5238;43.508;4.980;2023-07-16T09:27:36;43.00;83.90
10384;DHT22;5238;43.508;4.980;2023-07-16T09:30:05;43.10;83.90
10384;DHT22;5238;43.508;4.980;2023-07-16T09:32:33;43.20;82.50
10384;DHT22;5238;43.508;4.980;2023-07-16T09:35:00;43.40;81.90
10384;DHT22;5238;43.508;4.980;2023-07-16T09:37:27;43.50;82.00
10384;DHT22;5238;43.508;4.980;2023-07-16T09:39:55;43.60;82.10
10384;DHT22;5238;43.508;4.980;2023-07-16T09:42:23;43.60;81.20
10384;DHT22;5238;43.508;4.980;2023-07-16T09:45:05;43.70;81.50
10384;DHT22;5238;43.508;4.980;2023-07-16T09:47:32;43.80;81.00
10384;DHT22;5238;43.508;4.980;2023-07-16T09:49:59;43.90;80.90
10384;DHT22;5238;43.508;4.980;2023-07-16T09:52:27;43.80;79.90
10384;DHT22;5238;43.508;4.980;2023-07-16T09:54:55;43.80;80.20
10384;DHT22;5238;43.508;4.980;2023-07-16T09:57:23;43.70;80.20
10384;DHT22;5238;43.508;4.980;2023-07-16T09:59:53;43.70;79.90
10384;DHT22;5238;43.508;4.980;2023-07-16T10:02:21;43.70;81.30
10384;DHT22;5238;43.508;4.980;2023-07-16T10:04:48;43.80;80.40
10384;DHT22;5238;43.508;4.980;2023-07-16T10:07:20;43.80;80.80
10384;DHT22;5238;43.508;4.980;2023-07-16T10:09:52;43.60;80.70
10384;DHT22;5238;43.508;4.980;2023-07-16T10:12:21;43.70;81.60
10384;DHT22;5238;43.508;4.980;2023-07-16T10:14:50;43.70;80.90
10384;DHT22;5238;43.508;4.980;2023-07-16T10:17:18;43.90;80.70
10384;DHT22;5238;43.508;4.980;2023-07-16T10:19:55;44.00;80.40
10384;DHT22;5238;43.508;4.980;2023-07-16T10:22:34;44.20;80.00
10384;DHT22;5238;43.508;4.980;2023-07-16T10:25:03;44.30;79.80
10384;DHT22;5238;43.508;4.980;2023-07-16T10:27:31;44.30;79.50
10384;DHT22;5238;43.508;4.980;2023-07-16T10:29:59;44.40;78.40
10384;DHT22;5238;43.508;4.980;2023-07-16T10:32:27;44.40;79.10
10384;DHT22;5238;43.508;4.980;2023-07-16T10:34:56;44.60;79.80
10384;DHT22;5238;43.508;4.980;2023-07-16T10:37:24;44.60;78.60
10384;DHT22;5238;43.508;4.980;2023-07-16T10:39:53;44.50;77.00
10384;DHT22;5238;43.508;4.980;2023-07-16T10:42:22;44.30;75.80
10384;DHT22;5238;43.508;4.980;2023-07-16T10:44:49;44.30;76.30
10384;DHT22;5238;43.508;4.980;2023-07-16T10:47:23;44.10;76.70
10384;DHT22;5238;43.508;4.980;2023-07-16T10:49:51;44.00;76.80
10384;DHT22;5238;43.508;4.980;2023-07-16T10:52:21;43.90;76.40
10384;DHT22;5238;43.508;4.980;2023-07-16T10:54:48;43.90;75.80
10384;DHT22;5238;43.508;4.980;2023-07-16T10:57:17;43.60;76.10
10384;DHT22;5238;43.508;4.980;2023-07-16T10:59:45;43.70;77.60
10384;DHT22;5238;43.508;4.980;2023-07-16T11:02:14;43.80;77.60
10384;DHT22;5238;43.508;4.980;2023-07-16T11:04:42;43.90;77.90
10384;DHT22;5238;43.508;4.980;2023-07-16T11:07:11;43.80;76.10
10384;DHT22;5238;43.508;4.980;2023-07-16T11:09:44;43.60;77.50
10384;DHT22;5238;43.508;4.980;2023-07-16T11:12:13;43.70;78.10
10384;DHT22;5238;43.508;4.980;2023-07-16T11:14:43;43.70;78.00
10384;DHT22;5238;43.508;4.980;2023-07-16T11:17:11;43.80;78.60
10384;DHT22;5238;43.508;4.980;2023-07-16T11:19:39;43.70;78.80
10384;DHT22;5238;43.508;4.980;2023-07-16T11:22:09;43.80;78.90
10384;DHT22;5238;43.508;4.980;2023-07-16T11:24:38;43.80;79.00
10384;DHT22;5238;43.508;4.980;2023-07-16T11:27:13;43.80;79.70
10384;DHT22;5238;43.508;4.980;2023-07-16T11:29:44;43.80;78.90
10384;DHT22;5238;43.508;4.980;2023-07-16T11:32:11;43.80;80.20
10384;DHT22;5238;43.508;4.980;2023-07-16T11:34:51;43.70;80.20
10384;DHT22;5238;43.508;4.980;2023-07-16T11:37:19;43.60;79.70
10384;DHT22;5238;43.508;4.980;2023-07-16T11:39:47;43.50;80.80
10384;DHT22;5238;43.508;4.980;2023-07-16T11:42:22;43.40;81.20
10384;DHT22;5238;43.508;4.980;2023-07-16T11:44:49;43.30;82.10
10384;DHT22;5238;43.508;4.980;2023-07-16T11:47:16;43.20;83.20
10384;DHT22;5238;43.508;4.980;2023-07-16T11:49:43;43.00;81.90
10384;DHT22;5238;43.508;4.980;2023-07-16T11:52:10;42.80;82.40
10384;DHT22;5238;43.508;4.980;2023-07-16T11:54:38;42.70;83.20
10384;DHT22;5238;43.508;4.980;2023-07-16T11:57:05;42.50;83.60
10384;DHT22;5238;43.508;4.980;2023-07-16T11:59:34;42.40;84.10
10384;DHT22;5238;43.508;4.980;2023-07-16T12:02:01;42.20;85.10
10384;DHT22;5238;43.508;4.980;2023-07-16T12:04:28;41.80;84.80
10384;DHT22;5238;43.508;4.980;2023-07-16T12:06:55;41.60;85.30
10384;DHT22;5238;43.508;4.980;2023-07-16T12:09:22;41.30;87.70
10384;DHT22;5238;43.508;4.980;2023-07-16T12:11:49;41.00;87.60
10384;DHT22;5238;43.508;4.980;2023-07-16T12:14:16;40.70;88.00
10384;DHT22;5238;43.508;4.980;2023-07-16T12:16:45;40.50;88.60
10384;DHT22;5238;43.508;4.980;2023-07-16T12:19:12;40.30;89.10
10384;DHT22;5238;43.508;4.980;2023-07-16T12:21:39;40.00;89.50
10384;DHT22;5238;43.508;4.980;2023-07-16T12:24:06;39.80;90.10
10384;DHT22;5238;43.508;4.980;2023-07-16T12:26:33;39.60;90.30
10384;DHT22;5238;43.508;4.980;2023-07-16T12:29:00;39.40;90.30
10384;DHT22;5238;43.508;4.980;2023-07-16T12:31:29;39.20;90.70
10384;DHT22;5238;43.508;4.980;2023-07-16T12:33:58;38.90;91.30
10384;DHT22;5238;43.508;4.980;2023-07-16T12:36:25;38.80;91.30
10384;DHT22;5238;43.508;4.980;2023-07-16T12:38:52;38.70;91.30
10384;DHT22;5238;43.508;4.980;2023-07-16T12:41:19;38.50;91.30
10384;DHT22;5238;43.508;4.980;2023-07-16T12:43:46;38.30;91.30
10384;DHT22;5238;43.508;4.980;2023-07-16T12:46:14;38.10;91.30
10384;DHT22;5238;43.508;4.980;2023-07-16T12:48:40;37.90;91.30
10384;DHT22;5238;43.508;4.980;2023-07-16T12:51:10;37.70;91.30
10384;DHT22;5238;43.508;4.980;2023-07-16T12:53:37;37.50;91.30
10384;DHT22;5238;43.508;4.980;2023-07-16T12:56:05;37.20;91.30
10384;DHT22;5238;43.508;4.980;2023-07-16T12:58:32;37.00;91.30
10384;DHT22;5238;43.508;4.980;2023-07-16T13:01:01;36.80;91.30
10384;DHT22;5238;43.508;4.980;2023-07-16T13:03:28;36.50;91.30
10384;DHT22;5238;43.508;4.980;2023-07-16T13:05:55;36.40;91.30
10384;DHT22;5238;43.508;4.980;2023-07-16T13:08:24;36.20;91.30
10384;DHT22;5238;43.508;4.980;2023-07-16T13:10:51;36.10;91.30
10384;DHT22;5238;43.508;4.980;2023-07-16T13:13:19;36.00;91.30
10384;DHT22;5238;43.508;4.980;2023-07-16T13:15:46;35.90;91.30
10384;DHT22;5238;43.508;4.980;2023-07-16T13:18:13;35.90;91.30
10384;DHT22;5238;43.508;4.980;2023-07-16T13:20:40;35.90;91.30
10384;DHT22;5238;43.508;4.980;2023-07-16T13:23:09;35.80;91.30
10384;DHT22;5238;43.508;4.980;2023-07-16T13:25:40;35.80;91.30
10384;DHT22;5238;43.508;4.980;2023-07-16T13:28:07;35.80;91.30
10384;DHT22;5238;43.508;4.980;2023-07-16T13:30:36;35.80;91.30
10384;DHT22;5238;43.508;4.980;2023-07-16T13:33:03;35.70;91.30
10384;DHT22;5238;43.508;4.980;2023-07-16T13:35:31;35.60;91.30
10384;DHT22;5238;43.508;4.980;2023-07-16T13:38:01;35.60;91.30
10384;DHT22;5238;43.508;4.980;2023-07-16T13:40:30;35.50;91.30
10384;DHT22;5238;43.508;4.980;2023-07-16T13:42:59;35.40;91.30
10384;DHT22;5238;43.508;4.980;2023-07-16T13:45:25;35.40;91.30
10384;DHT22;5238;43.508;4.980;2023-07-16T13:47:53;35.30;91.30
10384;DHT22;5238;43.508;4.980;2023-07-16T13:50:23;35.20;91.30
10384;DHT22;5238;43.508;4.980;2023-07-16T13:52:54;35.10;91.30
10384;DHT22;5238;43.508;4.980;2023-07-16T13:55:21;35.00;91.30
10384;DHT22;5238;43.508;4.980;2023-07-16T13:57:51;34.90;91.30
10384;DHT22;5238;43.508;4.980;2023-07-16T14:00:35;34.80;91.30
10384;DHT22;5238;43.508;4.980;2023-07-16T14:03:03;34.70;91.30
10384;DHT22;5238;43.508;4.980;2023-07-16T14:05:34;34.60;91.30
10384;DHT22;5238;43.508;4.980;2023-07-16T14:08:04;34.60;91.30
10384;DHT22;5238;43.508;4.980;2023-07-16T14:10:33;34.60;91.30
10384;DHT22;5238;43.508;4.980;2023-07-16T14:13:00;34.50;91.30
10384;DHT22;5238;43.508;4.980;2023-07-16T14:15:28;34.50;91.30
10384;DHT22;5238;43.508;4.980;2023-07-16T14:18:10;34.40;91.30
10384;DHT22;5238;43.508;4.980;2023-07-16T14:20:37;34.40;91.30
10384;DHT22;5238;43.508;4.980;2023-07-16T14:23:07;34.40;91.30
10384;DHT22;5238;43.508;4.980;2023-07-16T14:25:35;34.40;91.30
10384;DHT22;5238;43.508;4.980;2023-07-16T14:28:04;34.30;91.30
10384;DHT22;5238;43.508;4.980;2023-07-16T14:30:31;34.20;91.30
10384;DHT22;5238;43.508;4.980;2023-07-16T14:32:58;34.10;91.30
10384;DHT22;5238;43.508;4.980;2023-07-16T14:35:28;34.10;91.30
10384;DHT22;5238;43.508;4.980;2023-07-16T14:38:09;34.00;91.30
10384;DHT22;5238;43.508;4.980;2023-07-16T14:40:37;34.00;91.30
10384;DHT22;5238;43.508;4.980;2023-07-16T14:43:05;34.00;91.30
10384;DHT22;5238;43.508;4.980;2023-07-16T14:45:32;34.00;91.30
10384;DHT22;5238;43.508;4.980;2023-07-16T14:47:59;34.00;91.30
10384;DHT22;5238;43.508;4.980;2023-07-16T14:50:31;34.00;91.30
10384;DHT22;5238;43.508;4.980;2023-07-16T14:52:58;34.00;91.30
10384;DHT22;5238;43.508;4.980;2023-07-16T14:55:28;33.90;91.30
10384;DHT22;5238;43.508;4.980;2023-07-16T14:57:55;33.80;91.30
10384;DHT22;5238;43.508;4.980;2023-07-16T15:00:22;33.80;91.30
10384;DHT22;5238;43.508;4.980;2023-07-16T15:02:50;33.70;91.30
10384;DHT22;5238;43.508;4.980;2023-07-16T15:05:18;33.60;91.30
10384;DHT22;5238;43.508;4.980;2023-07-16T15:07:56;33.60;91.30
10384;DHT22;5238;43.508;4.980;2023-07-16T15:10:26;33.60;91.30
10384;DHT22;5238;43.508;4.980;2023-07-16T15:13:01;33.70;91.30
10384;DHT22;5238;43.508;4.980;2023-07-16T15:15:30;33.70;91.30
10384;DHT22;5238;43.508;4.980;2023-07-16T15:17:59;33.70;91.30
10384;DHT22;5238;43.508;4.980;2023-07-16T15:20:28;33.70;91.30
10384;DHT22;5238;43.508;4.980;2023-07-16T15:22:56;33.70;91.30
10384;DHT22;5238;43.508;4.980;2023-07-16T15:25:23;33.60;91.30
10384;DHT22;5238;43.508;4.980;2023-07-16T15:27:51;33.50;91.30
10384;DHT22;5238;43.508;4.980;2023-07-16T15:30:18;33.50;91.30
10384;DHT22;5238;43.508;4.980;2023-07-16T15:32:45;33.40;91.30
10384;DHT22;5238;43.508;4.980;2023-07-16T15:35:12;33.40;91.30
10384;DHT22;5238;43.508;4.980;2023-07-16T15:37:39;33.40;91.30
10384;DHT22;5238;43.508;4.980;2023-07-16T15:40:14;33.40;91.30
10384;DHT22;5238;43.508;4.980;2023-07-16T15:42:41;33.30;91.30
10384;DHT22;5238;43.508;4.980;2023-07-16T15:45:10;33.30;91.30
10384;DHT22;5238;43.508;4.980;2023-07-16T15:47:39;33.30;91.30
10384;DHT22;5238;43.508;4.980;2023-07-16T15:50:06;33.30;91.30
10384;DHT22;5238;43.508;4.980;2023-07-16T15:52:33;33.30;91.30